Time;durP1;ratioP1;P1;durP2;ratioP2;P2;SDS_P1;SDS_P2;PMS_P1;PMS_P2;Temp;Humidity;BMP_temperature;BMP_pressure;BME280_temperature;BME280_humidity;BME280_pressure;Samples;Min_cycle;Max_cycle;Signal;HPM_P1;HPM_P2
2023/03/06 00:01:16;;;;;;;13.70;9.07;;;;;-0.60;93145.00;;;;7393422;19;20136;-74
2023/03/06 00:03:50;;;;;;;18.30;9.57;;;;;-0.70;93146.00;;;;7394698;19;20171;-75
2023/03/06 00:06:25;;;;;;;17.17;9.30;;;;;-0.80;93153.00;;;;7390859;19;20615;-75
2023/03/06 00:08:59;;;;;;;17.00;9.83;;;;;-0.70;93138.00;;;;7392653;19;20149;-74
2023/03/06 00:11:33;;;;;;;14.47;8.87;;;;;-0.90;93146.00;;;;7392316;19;20212;-73
2023/03/06 00:14:00;;;;;;;14.83;9.17;;;;;-0.80;93144.00;;;;7393517;19;20145;-74
2023/03/06 00:16:34;;;;;;;17.70;9.87;;;;;-0.80;93138.00;;;;7390677;19;20647;-75
2023/03/06 00:19:02;;;;;;;15.23;8.90;;;;;-0.90;93133.00;;;;7395120;19;20125;-75
2023/03/06 00:21:35;;;;;;;16.80;8.77;;;;;-0.90;93127.00;;;;7394824;19;20531;-75
2023/03/06 00:24:09;;;;;;;14.90;9.60;;;;;-1.00;93137.00;;;;7402395;19;20463;-75
2023/03/06 00:26:43;;;;;;;14.20;8.83;;;;;-1.10;93128.00;;;;7398959;19;20161;-76
2023/03/06 00:29:17;;;;;;;16.87;8.93;;;;;-1.10;93131.00;;;;7401700;19;20465;-75
2023/03/06 00:31:46;;;;;;;16.63;10.13;;;;;-1.00;93122.00;;;;7401452;19;20156;-74
2023/03/06 00:34:20;;;;;;;16.07;10.13;;;;;-1.00;93132.00;;;;7401397;19;20136;-75
2023/03/06 00:36:47;;;;;;;14.07;8.50;;;;;-1.30;93127.00;;;;7399086;19;20544;-74
2023/03/06 00:39:22;;;;;;;14.17;8.90;;;;;-1.30;93128.00;;;;7400822;19;20594;-75
2023/03/06 00:41:56;;;;;;;19.10;10.07;;;;;-1.40;93123.00;;;;7398190;19;20149;-77
2023/03/06 00:44:30;;;;;;;15.40;8.77;;;;;-1.40;93128.00;;;;7400635;19;20125;-75
2023/03/06 00:46:58;;;;;;;14.90;9.27;;;;;-1.40;93122.00;;;;7399215;19;20155;-76
2023/03/06 00:49:32;;;;;;;16.90;8.97;;;;;-1.30;93122.00;;;;7399257;19;20151;-76
2023/03/06 00:52:06;;;;;;;15.57;9.13;;;;;-1.40;93124.00;;;;7400314;19;20147;-74
2023/03/06 00:54:40;;;;;;;16.40;9.10;;;;;-1.40;93105.00;;;;7400171;19;20620;-77
2023/03/06 00:57:14;;;;;;;21.83;9.90;;;;;-1.40;93101.00;;;;7400862;19;20132;-74
2023/03/06 00:59:41;;;;;;;16.77;9.43;;;;;-1.30;93103.00;;;;7400251;19;20461;-75
2023/03/06 01:02:09;;;;;;;15.67;9.30;;;;;-1.30;93098.00;;;;7395150;19;20176;-75
2023/03/06 01:04:57;;;;;;;14.40;8.50;;;;;-1.30;93102.00;;;;7399559;19;20567;-75
2023/03/06 01:07:35;;;;;;;15.27;8.07;;;;;-1.30;93101.00;;;;7396667;19;20168;-74
2023/03/06 01:10:10;;;;;;;19.03;10.00;;;;;-1.20;93085.00;;;;7399108;19;20208;-75
2023/03/06 01:12:37;;;;;;;12.73;7.87;;;;;-1.20;93085.00;;;;7396353;19;20147;-75
2023/03/06 01:15:12;;;;;;;13.90;8.17;;;;;-1.20;93085.00;;;;7397738;19;20137;-75
2023/03/06 01:17:40;;;;;;;17.13;9.27;;;;;-1.20;93078.00;;;;7397355;19;20149;-75
2023/03/06 01:20:16;;;;;;;12.23;7.60;;;;;-1.20;93080.00;;;;7401076;19;21055;-74
2023/03/06 01:22:50;;;;;;;15.00;7.73;;;;;-1.10;93080.00;;;;7399888;19;20167;-74
2023/03/06 01:25:24;;;;;;;14.10;7.83;;;;;-1.10;93072.00;;;;7398342;19;20515;-74
2023/03/06 01:27:52;;;;;;;14.90;8.03;;;;;-1.10;93072.00;;;;7401385;19;20128;-76
2023/03/06 01:30:20;;;;;;;15.40;8.03;;;;;-1.00;93065.00;;;;7400252;19;20188;-73
2023/03/06 01:32:54;;;;;;;16.80;8.27;;;;;-1.00;93066.00;;;;7398465;19;20451;-75
2023/03/06 01:35:22;;;;;;;14.37;8.10;;;;;-1.10;93061.00;;;;7401277;19;20188;-74
2023/03/06 01:37:56;;;;;;;14.10;7.33;;;;;-1.00;93062.00;;;;7399332;19;20176;-75
2023/03/06 01:40:32;;;;;;;11.40;7.40;;;;;-1.00;93068.00;;;;7398906;19;20167;-74
2023/03/06 01:43:07;;;;;;;13.37;7.33;;;;;-0.90;93059.00;;;;7399087;19;20129;-74
2023/03/06 01:45:50;;;;;;;14.43;7.97;;;;;-0.90;93062.00;;;;7397388;19;20844;-75
2023/03/06 01:48:20;;;;;;;12.83;7.23;;;;;-0.70;93048.00;;;;7397879;19;20511;-74
2023/03/06 01:50:54;;;;;;;14.90;7.97;;;;;-0.80;93038.00;;;;7399011;19;20563;-75
2023/03/06 01:53:22;;;;;;;14.53;8.13;;;;;-0.90;93036.00;;;;7399071;19;20129;-74
2023/03/06 01:55:55;;;;;;;15.50;7.67;;;;;-0.90;93036.00;;;;7396153;19;20152;-75
2023/03/06 01:58:23;;;;;;;14.10;7.20;;;;;-1.00;93036.00;;;;7398916;19;20162;-75
2023/03/06 02:00:56;;;;;;;11.70;7.97;;;;;-0.80;93034.00;;;;7396597;19;20152;-77
2023/03/06 02:03:37;;;;;;;12.40;7.40;;;;;-0.70;93028.00;;;;7391639;19;20192;-71
2023/03/06 02:06:12;;;;;;;12.07;7.53;;;;;-0.70;93044.00;;;;7396334;19;20184;-68
2023/03/06 02:08:39;;;;;;;12.33;7.57;;;;;-0.80;93015.00;;;;7395922;19;20185;-68
2023/03/06 02:11:17;;;;;;;12.90;7.13;;;;;-0.80;93013.00;;;;7398288;19;20151;-68
2023/03/06 02:13:46;;;;;;;13.50;7.47;;;;;-0.80;93005.00;;;;7395461;19;20160;-68
2023/03/06 02:16:26;;;;;;;11.33;6.77;;;;;-1.10;93005.00;;;;7395216;19;20161;-68
2023/03/06 02:18:54;;;;;;;14.33;7.83;;;;;-1.00;92994.00;;;;7396864;19;20479;-68
2023/03/06 02:21:33;;;;;;;13.33;8.00;;;;;-1.00;93004.00;;;;7396320;19;20465;-68
2023/03/06 02:24:31;;;;;;;14.00;7.47;;;;;-1.10;92995.00;;;;7396443;19;20133;-68
2023/03/06 02:27:08;;;;;;;13.23;7.90;;;;;-1.10;93005.00;;;;7394043;19;20163;-68
2023/03/06 02:29:36;;;;;;;13.53;8.10;;;;;-1.10;92997.00;;;;7395600;19;20149;-68
2023/03/06 02:32:09;;;;;;;11.47;7.00;;;;;-1.20;92987.00;;;;7396057;19;20144;-70
2023/03/06 02:34:37;;;;;;;14.90;8.03;;;;;-1.20;92983.00;;;;7394987;19;20605;-68
2023/03/06 02:37:10;;;;;;;11.83;7.33;;;;;-1.20;92990.00;;;;7395740;19;20536;-68
2023/03/06 02:39:43;;;;;;;15.70;8.60;;;;;-1.20;92992.00;;;;7396632;19;20125;-68
2023/03/06 02:42:22;;;;;;;13.40;8.27;;;;;-1.10;92992.00;;;;7393476;19;20473;-69
2023/03/06 02:44:59;;;;;;;14.63;8.53;;;;;-1.20;92987.00;;;;7393558;19;20149;-68
2023/03/06 02:47:33;;;;;;;12.43;7.60;;;;;-1.20;92989.00;;;;7392151;19;20495;-68
2023/03/06 02:50:08;;;;;;;14.10;7.43;;;;;-1.30;92988.00;;;;7397316;19;20482;-68
2023/03/06 02:52:35;;;;;;;13.10;8.00;;;;;-1.30;92985.00;;;;7396648;19;20610;-69
2023/03/06 02:55:09;;;;;;;13.30;8.00;;;;;-1.20;92983.00;;;;7394938;19;20455;-68
2023/03/06 02:57:37;;;;;;;12.67;8.20;;;;;-1.20;92988.00;;;;7391929;19;20165;-68
2023/03/06 03:00:13;;;;;;;14.60;8.47;;;;;-1.30;92977.00;;;;7391801;19;20526;-69
2023/03/06 03:02:53;;;;;;;16.97;8.87;;;;;-1.30;92976.00;;;;7392905;19;20194;-68
2023/03/06 03:05:27;;;;;;;14.93;8.40;;;;;-1.20;92981.00;;;;7395064;19;20125;-68
2023/03/06 03:08:01;;;;;;;15.43;8.83;;;;;-1.40;92974.00;;;;7396329;19;20615;-69
2023/03/06 03:10:29;;;;;;;12.70;7.87;;;;;-1.40;92980.00;;;;7392366;19;20555;-68
2023/03/06 03:12:57;;;;;;;12.03;8.07;;;;;-1.40;92974.00;;;;7396296;19;20128;-69
2023/03/06 03:15:31;;;;;;;13.63;7.83;;;;;-1.30;92971.00;;;;7394033;19;20666;-69
2023/03/06 03:17:59;;;;;;;14.20;7.97;;;;;-1.40;92976.00;;;;7394346;19;20153;-68
2023/03/06 03:20:32;;;;;;;15.30;8.40;;;;;-1.30;92967.00;;;;7393424;19;20151;-68
2023/03/06 03:22:59;;;;;;;15.50;7.73;;;;;-1.20;92972.00;;;;7393781;19;20627;-68
2023/03/06 03:25:33;;;;;;;14.83;8.63;;;;;-1.30;92975.00;;;;7392125;19;20152;-68
2023/03/06 03:28:01;;;;;;;16.93;8.63;;;;;-1.30;92967.00;;;;7395865;19;20147;-68
2023/03/06 03:30:35;;;;;;;14.00;8.53;;;;;-1.20;92966.00;;;;7395011;19;20183;-68
2023/03/06 03:33:02;;;;;;;13.80;8.10;;;;;-1.10;92960.00;;;;7393850;19;20152;-68
2023/03/06 03:35:36;;;;;;;15.13;8.90;;;;;-1.30;92966.00;;;;7392792;19;20600;-68
2023/03/06 03:38:04;;;;;;;15.00;8.30;;;;;-1.30;92957.00;;;;7393705;19;20623;-68
2023/03/06 03:40:38;;;;;;;14.87;9.33;;;;;-1.10;92964.00;;;;7394948;19;20135;-69
2023/03/06 03:43:12;;;;;;;13.43;8.43;;;;;-1.10;92953.00;;;;7393961;19;20615;-68
2023/03/06 03:45:46;;;;;;;13.07;8.27;;;;;-1.20;92957.00;;;;7390411;19;20513;-68
2023/03/06 03:48:20;;;;;;;12.97;8.73;;;;;-1.00;92949.00;;;;7393814;19;20461;-69
2023/03/06 03:50:54;;;;;;;17.77;9.77;;;;;-0.90;92950.00;;;;7393244;19;20214;-68
2023/03/06 03:53:21;;;;;;;18.40;10.03;;;;;-1.10;92947.00;;;;7394404;19;20136;-69
2023/03/06 03:55:49;;;;;;;17.20;10.27;;;;;-1.20;92952.00;;;;7390664;19;20500;-68
2023/03/06 03:58:23;;;;;;;14.70;9.53;;;;;-1.30;92946.00;;;;7394219;19;20132;-69
2023/03/06 04:00:50;;;;;;;15.90;9.87;;;;;-1.20;92946.00;;;;7392282;19;20137;-68
2023/03/06 04:03:24;;;;;;;19.80;9.27;;;;;-1.30;92945.00;;;;7391717;19;20188;-69
2023/03/06 04:06:00;;;;;;;18.50;10.63;;;;;-1.30;92947.00;;;;7391506;19;20137;-68
2023/03/06 04:08:27;;;;;;;19.63;10.37;;;;;-1.30;92946.00;;;;7394081;19;20137;-69
2023/03/06 04:11:02;;;;;;;15.70;9.70;;;;;-1.30;92936.00;;;;7393386;19;20156;-68
2023/03/06 04:13:29;;;;;;;17.63;9.83;;;;;-1.20;92942.00;;;;7391402;19;20153;-69
2023/03/06 04:16:04;;;;;;;20.53;10.80;;;;;-1.10;92929.00;;;;7392224;19;20137;-68
2023/03/06 04:18:31;;;;;;;16.83;10.13;;;;;-1.30;92928.00;;;;7393669;19;20144;-68
2023/03/06 04:21:05;;;;;;;19.47;10.47;;;;;-1.30;92926.00;;;;7391114;19;20667;-68
2023/03/06 04:23:39;;;;;;;19.60;10.43;;;;;-1.40;92919.00;;;;7394078;19;20137;-68
2023/03/06 04:26:13;;;;;;;18.93;11.10;;;;;-1.50;92921.00;;;;7390878;19;20129;-68
2023/03/06 04:28:40;;;;;;;18.77;10.60;;;;;-1.50;92910.00;;;;7393999;19;20583;-68
2023/03/06 04:31:14;;;;;;;19.80;10.23;;;;;-1.50;92923.00;;;;7392732;19;20623;-68
2023/03/06 04:33:42;;;;;;;18.23;10.27;;;;;-1.40;92917.00;;;;7391935;19;20140;-68
2023/03/06 04:36:30;;;;;;;18.80;9.33;;;;;-1.40;92916.00;;;;7390682;19;20140;-68
2023/03/06 04:38:58;;;;;;;18.00;10.70;;;;;-1.40;92919.00;;;;7392569;19;20125;-68
2023/03/06 04:41:33;;;;;;;17.10;9.97;;;;;-1.30;92909.00;;;;7391730;19;20144;-68
2023/03/06 04:44:00;;;;;;;19.90;9.80;;;;;-1.40;92915.00;;;;7390606;19;20157;-69
2023/03/06 04:46:34;;;;;;;18.07;9.63;;;;;-1.40;92908.00;;;;7389851;19;20147;-69
2023/03/06 04:49:08;;;;;;;20.70;10.57;;;;;-1.40;92903.00;;;;7392389;19;20188;-68
2023/03/06 04:51:36;;;;;;;17.07;10.07;;;;;-1.30;92912.00;;;;7392908;19;20133;-68
2023/03/06 04:54:09;;;;;;;18.37;10.37;;;;;-1.20;92906.00;;;;7392128;19;20135;-68
2023/03/06 04:56:38;;;;;;;16.43;9.50;;;;;-1.30;92909.00;;;;7387967;19;20156;-68
2023/03/06 04:59:12;;;;;;;20.00;10.67;;;;;-1.30;92907.00;;;;7392783;19;20616;-68
2023/03/06 05:01:40;;;;;;;14.40;9.23;;;;;-1.20;92912.00;;;;7391677;19;20133;-68
2023/03/06 05:04:20;;;;;;;17.00;9.10;;;;;-1.30;92912.00;;;;7391154;19;20179;-68
2023/03/06 05:06:47;;;;;;;15.77;8.80;;;;;-1.20;92914.00;;;;7388516;19;20164;-68
2023/03/06 05:09:21;;;;;;;13.47;8.83;;;;;-1.20;92917.00;;;;7396339;19;20156;-68
2023/03/06 05:11:49;;;;;;;16.87;8.83;;;;;-1.20;92912.00;;;;7399566;19;20532;-68
2023/03/06 05:14:22;;;;;;;15.17;8.93;;;;;-1.10;92919.00;;;;7400207;19;20125;-68
2023/03/06 05:16:49;;;;;;;15.13;9.17;;;;;-1.10;92911.00;;;;7396530;19;20151;-68
2023/03/06 05:19:23;;;;;;;12.10;7.97;;;;;-1.00;92907.00;;;;7399656;19;20212;-68
2023/03/06 05:21:51;;;;;;;17.73;9.50;;;;;-0.80;92906.00;;;;7397005;19;20151;-69
2023/03/06 05:24:24;;;;;;;16.57;9.50;;;;;-0.80;92910.00;;;;7398518;19;20851;-68
2023/03/06 05:26:58;;;;;;;16.80;9.10;;;;;-0.70;92900.00;;;;7398217;19;20116;-68
2023/03/06 05:29:26;;;;;;;13.30;8.63;;;;;-0.90;92899.00;;;;7400159;19;20154;-68
2023/03/06 05:32:00;;;;;;;15.80;8.83;;;;;-0.60;92904.00;;;;7396932;19;20845;-68
2023/03/06 05:34:34;;;;;;;21.73;9.80;;;;;-0.70;92907.00;;;;7398045;19;20144;-68
2023/03/06 05:37:08;;;;;;;15.47;9.20;;;;;-0.90;92899.00;;;;7397044;19;20133;-69
2023/03/06 05:39:36;;;;;;;13.73;8.60;;;;;-0.80;92886.00;;;;7397387;19;20168;-68
2023/03/06 05:42:09;;;;;;;20.77;9.93;;;;;-0.80;92884.00;;;;7398791;19;20125;-69
2023/03/06 05:44:37;;;;;;;15.13;9.33;;;;;-0.70;92885.00;;;;7396318;19;20136;-69
2023/03/06 05:47:12;;;;;;;15.30;8.10;;;;;-0.80;92889.00;;;;7395836;19;20622;-68
2023/03/06 05:49:45;;;;;;;15.17;8.70;;;;;-0.80;92891.00;;;;7398839;19;20204;-69
2023/03/06 05:52:19;;;;;;;14.63;8.50;;;;;-0.60;92896.00;;;;7396934;19;20618;-68
2023/03/06 05:54:51;;;;;;;17.70;7.87;;;;;-0.70;92890.00;;;;7399122;19;20133;-68
2023/03/06 05:57:25;;;;;;;12.53;8.70;;;;;-0.60;92887.00;;;;7396882;19;20152;-69
2023/03/06 05:59:59;;;;;;;12.07;7.90;;;;;-0.70;92896.00;;;;7397194;19;20117;-69
2023/03/06 06:02:26;;;;;;;11.60;7.97;;;;;-0.60;92894.00;;;;7385565;19;20690;-67
2023/03/06 06:05:08;;;;;;;12.43;7.63;;;;;-0.60;92891.00;;;;7397605;19;20133;-67
2023/03/06 06:07:39;;;;;;;12.00;7.37;;;;;-0.50;92897.00;;;;7393859;19;20129;-67
2023/03/06 06:10:33;;;;;;;15.63;8.57;;;;;-0.70;92889.00;;;;7397281;19;20145;-69
2023/03/06 06:13:07;;;;;;;12.90;7.97;;;;;-0.70;92894.00;;;;7398464;19;20476;-69
2023/03/06 06:15:41;;;;;;;13.43;7.93;;;;;-0.80;92886.00;;;;7396260;19;20125;-68
2023/03/06 06:18:15;;;;;;;17.87;8.57;;;;;-0.80;92904.00;;;;7397533;19;20525;-67
2023/03/06 06:20:43;;;;;;;13.93;8.03;;;;;-0.70;92897.00;;;;7395428;19;20176;-67
2023/03/06 06:23:17;;;;;;;15.23;8.67;;;;;-0.60;92883.00;;;;7395731;19;20476;-67
2023/03/06 06:25:45;;;;;;;16.67;8.80;;;;;-0.70;92897.00;;;;7395729;19;20142;-68
2023/03/06 06:28:18;;;;;;;15.83;8.30;;;;;-0.50;92906.00;;;;7395697;19;20143;-67
2023/03/06 06:30:52;;;;;;;13.67;8.37;;;;;-0.50;92903.00;;;;7395981;19;20579;-67
2023/03/06 06:33:26;;;;;;;15.47;8.83;;;;;-0.50;92901.00;;;;7396473;19;20154;-67
2023/03/06 06:35:54;;;;;;;12.93;8.20;;;;;-0.50;92905.00;;;;7395123;19;20253;-68
2023/03/06 06:38:27;;;;;;;12.87;8.43;;;;;-0.50;92898.00;;;;7397779;19;20462;-68
2023/03/06 06:40:55;;;;;;;13.30;8.17;;;;;-0.40;92900.00;;;;7394486;19;20185;-68
2023/03/06 06:43:49;;;;;;;15.07;9.17;;;;;-0.30;92898.00;;;;7394779;19;20133;-68
2023/03/06 06:46:16;;;;;;;15.43;9.37;;;;;-0.10;92909.00;;;;7395681;19;20117;-68
2023/03/06 06:49:14;;;;;;;16.27;9.23;;;;;-0.20;92910.00;;;;7395123;19;20128;-68
2023/03/06 06:51:41;;;;;;;16.03;9.07;;;;;-0.20;92904.00;;;;7393776;19;20160;-70
2023/03/06 06:54:15;;;;;;;18.10;9.13;;;;;-0.10;92904.00;;;;7391917;19;20128;-72
2023/03/06 06:56:43;;;;;;;16.77;8.90;;;;;0.00;92906.00;;;;7394436;19;20117;-70
2023/03/06 06:59:16;;;;;;;19.73;10.43;;;;;-0.10;92905.00;;;;7395480;19;20192;-70
2023/03/06 07:01:44;;;;;;;14.50;8.93;;;;;0.00;92905.00;;;;7394104;19;20595;-69
2023/03/06 07:04:25;;;;;;;14.20;9.20;;;;;-0.10;92911.00;;;;7394664;19;20211;-69
2023/03/06 07:07:06;;;;;;;15.93;9.60;;;;;-0.10;92915.00;;;;7392471;19;20153;-69
2023/03/06 07:09:40;;;;;;;15.00;9.60;;;;;0.00;92922.00;;;;7395036;19;20525;-69
2023/03/06 07:12:13;;;;;;;15.27;8.77;;;;;0.10;92935.00;;;;7395014;19;20129;-70
2023/03/06 07:14:47;;;;;;;15.23;9.53;;;;;0.10;92927.00;;;;7394203;19;20356;-69
2023/03/06 07:17:15;;;;;;;14.97;8.50;;;;;0.00;92935.00;;;;7393412;19;20596;-69
2023/03/06 07:19:43;;;;;;;14.67;9.03;;;;;-0.10;92929.00;;;;7392000;19;20156;-70
2023/03/06 07:22:17;;;;;;;16.37;10.07;;;;;-0.10;92938.00;;;;7393491;19;20144;-70
2023/03/06 07:24:45;;;;;;;17.77;10.37;;;;;0.00;92941.00;;;;7393527;19;20645;-69
2023/03/06 07:27:12;;;;;;;15.30;9.47;;;;;0.10;92934.00;;;;7391666;19;20133;-69
2023/03/06 07:29:47;;;;;;;14.17;9.53;;;;;-0.10;92935.00;;;;7394556;19;20328;-69
2023/03/06 07:32:15;;;;;;;15.30;10.20;;;;;0.10;92941.00;;;;7393531;19;20521;-70
2023/03/06 07:34:48;;;;;;;15.90;9.70;;;;;0.20;92944.00;;;;7395072;19;20137;-69
2023/03/06 07:37:16;;;;;;;17.20;9.90;;;;;-0.10;92939.00;;;;7391612;19;20594;-69
2023/03/06 07:39:49;;;;;;;17.53;10.23;;;;;0.00;92938.00;;;;7393149;19;20154;-70
2023/03/06 07:42:23;;;;;;;17.40;10.07;;;;;0.30;92937.00;;;;7392520;19;20166;-69
2023/03/06 07:44:51;;;;;;;18.60;10.57;;;;;0.00;92940.00;;;;7393647;19;20129;-70
2023/03/06 07:47:24;;;;;;;15.00;9.40;;;;;0.20;92935.00;;;;7391862;19;20154;-70
2023/03/06 07:50:01;;;;;;;17.40;9.47;;;;;0.20;92948.00;;;;7393823;19;20143;-70
2023/03/06 07:52:29;;;;;;;16.17;10.20;;;;;0.10;92941.00;;;;7391522;19;20164;-69
2023/03/06 07:55:04;;;;;;;13.00;9.07;;;;;0.10;92945.00;;;;7392007;19;20132;-70
2023/03/06 07:57:38;;;;;;;17.03;10.83;;;;;0.20;92945.00;;;;7391153;19;20508;-70
2023/03/06 08:00:14;;;;;;;16.43;10.23;;;;;0.00;92947.00;;;;7391110;19;20133;-70
2023/03/06 08:02:48;;;;;;;17.83;9.63;;;;;0.30;92939.00;;;;7390002;19;20641;-75
2023/03/06 08:05:29;;;;;;;16.70;10.13;;;;;0.30;92941.00;;;;7392535;19;20619;-75
2023/03/06 08:08:03;;;;;;;16.20;9.23;;;;;0.40;92944.00;;;;7393487;19;20144;-76
2023/03/06 08:10:37;;;;;;;14.20;8.90;;;;;0.30;92948.00;;;;7393005;19;20583;-76
2023/03/06 08:13:05;;;;;;;15.40;10.13;;;;;0.50;92936.00;;;;7388374;19;20950;-75
2023/03/06 08:15:38;;;;;;;15.63;10.17;;;;;0.50;92945.00;;;;7390778;19;20603;-75
2023/03/06 08:18:06;;;;;;;15.87;9.23;;;;;0.30;92939.00;;;;7394365;19;20846;-75
2023/03/06 08:20:40;;;;;;;15.03;10.07;;;;;0.30;92947.00;;;;7393412;19;20470;-75
2023/03/06 08:23:07;;;;;;;13.10;9.03;;;;;0.20;92948.00;;;;7394244;19;20121;-76
2023/03/06 08:25:41;;;;;;;14.60;9.03;;;;;0.10;92960.00;;;;7391643;19;20149;-76
2023/03/06 08:28:09;;;;;;;13.30;9.07;;;;;0.40;92954.00;;;;7394756;19;20137;-75
2023/03/06 08:30:42;;;;;;;14.90;9.67;;;;;0.30;92953.00;;;;7393229;19;20615;-75
2023/03/06 08:33:10;;;;;;;14.50;9.27;;;;;0.40;92955.00;;;;7394781;19;20169;-76
2023/03/06 08:35:43;;;;;;;15.23;8.70;;;;;0.60;92962.00;;;;7392104;19;20153;-76
2023/03/06 08:38:11;;;;;;;17.53;9.73;;;;;0.40;92960.00;;;;7393659;19;20188;-75
2023/03/06 08:40:45;;;;;;;12.63;8.70;;;;;0.50;92958.00;;;;7394078;19;20149;-74
2023/03/06 08:43:12;;;;;;;15.27;9.43;;;;;0.60;92964.00;;;;7397199;19;20142;-74
2023/03/06 08:45:52;;;;;;;14.23;9.30;;;;;0.50;92955.00;;;;7396856;19;20603;-75
2023/03/06 08:48:25;;;;;;;13.57;9.30;;;;;0.50;92961.00;;;;7400527;19;20135;-74
2023/03/06 08:50:54;;;;;;;17.67;9.23;;;;;0.30;92953.00;;;;7400856;19;20136;-75
2023/03/06 08:53:28;;;;;;;13.97;8.47;;;;;0.40;92967.00;;;;7400218;19;20138;-75
2023/03/06 08:56:24;;;;;;;13.53;8.70;;;;;0.30;92962.00;;;;7395930;19;20215;-75
2023/03/06 08:59:01;;;;;;;14.03;8.73;;;;;0.20;92963.00;;;;7398967;19;20124;-75
2023/03/06 09:01:36;;;;;;;15.33;8.90;;;;;0.10;92977.00;;;;7397833;19;20144;-75
2023/03/06 09:04:17;;;;;;;14.53;8.73;;;;;0.20;92964.00;;;;7395619;19;20148;-75
2023/03/06 09:06:44;;;;;;;16.03;9.20;;;;;0.20;92969.00;;;;7395212;19;20164;-76
2023/03/06 09:09:21;;;;;;;15.77;9.47;;;;;0.30;92974.00;;;;7399717;19;20146;-75
2023/03/06 09:11:55;;;;;;;16.53;9.10;;;;;0.20;92975.00;;;;7399355;19;20580;-76
2023/03/06 09:14:24;;;;;;;13.53;9.10;;;;;0.20;92976.00;;;;7398240;19;20133;-74
2023/03/06 09:16:57;;;;;;;15.33;9.70;;;;;0.30;92981.00;;;;7394436;19;20653;-75
2023/03/06 09:19:25;;;;;;;14.43;9.30;;;;;0.20;92984.00;;;;7400594;19;20648;-75
2023/03/06 09:21:59;;;;;;;16.13;9.50;;;;;0.30;92985.00;;;;7399039;19;20175;-75
2023/03/06 09:24:27;;;;;;;14.60;8.73;;;;;0.20;92978.00;;;;7398076;19;20157;-75
2023/03/06 09:27:01;;;;;;;14.40;9.53;;;;;0.20;92985.00;;;;7395552;19;20132;-75
2023/03/06 09:29:35;;;;;;;15.20;9.63;;;;;0.20;92985.00;;;;7399701;19;20476;-76
2023/03/06 09:32:09;;;;;;;16.77;10.90;;;;;0.40;92988.00;;;;7400220;19;20144;-75
2023/03/06 09:34:43;;;;;;;15.20;9.53;;;;;0.20;92975.00;;;;7399175;19;20177;-75
2023/03/06 09:37:11;;;;;;;15.17;9.47;;;;;0.50;92984.00;;;;7397824;19;20137;-75
2023/03/06 09:39:38;;;;;;;15.93;10.43;;;;;0.60;92983.00;;;;7399508;19;20654;-75
2023/03/06 09:42:18;;;;;;;16.20;10.00;;;;;0.60;92982.00;;;;7400690;19;20129;-75
2023/03/06 09:45:01;;;;;;;15.77;10.40;;;;;0.60;92972.00;;;;7398826;19;20129;-76
2023/03/06 09:47:59;;;;;;;14.83;9.43;;;;;0.70;92982.00;;;;7394655;19;20224;-75
2023/03/06 09:50:41;;;;;;;14.63;10.07;;;;;0.70;92970.00;;;;7400419;19;20192;-75
2023/03/06 09:53:40;;;;;;;14.97;10.03;;;;;0.70;92974.00;;;;7398751;19;20176;-75
2023/03/06 09:56:18;;;;;;;15.53;9.60;;;;;0.80;92983.00;;;;7396635;19;20462;-74
2023/03/06 09:58:59;;;;;;;16.00;9.73;;;;;0.90;92977.00;;;;7395444;19;20156;-74
2023/03/06 10:01:31;;;;;;;16.53;9.50;;;;;1.00;92971.00;;;;7392690;19;20647;-74
2023/03/06 10:04:36;;;;;;;13.57;8.43;;;;;1.00;92977.00;;;;7394121;19;20603;-75
2023/03/06 10:07:11;;;;;;;13.07;8.63;;;;;0.90;92967.00;;;;7393179;19;20169;-75
2023/03/06 10:10:05;;;;;;;13.07;8.53;;;;;1.10;92975.00;;;;7394985;19;20158;-77
2023/03/06 10:12:37;;;;;;;13.90;8.43;;;;;1.00;92970.00;;;;7395955;19;20579;-75
2023/03/06 10:15:26;;;;;;;13.80;8.73;;;;;0.90;92979.00;;;;7395905;19;20136;-74
2023/03/06 10:18:03;;;;;;;14.10;9.10;;;;;1.10;92978.00;;;;7392254;19;20927;-79
2023/03/06 10:21:01;;;;;;;11.67;8.57;;;;;1.50;92979.00;;;;7393337;19;20156;-76
2023/03/06 10:24:21;;;;;;;12.30;8.33;;;;;1.40;92971.00;;;;7394065;19;20618;-78
2023/03/06 10:27:20;;;;;;;12.77;7.80;;;;;1.40;92975.00;;;;7393009;19;20468;-75
2023/03/06 10:30:31;;;;;;;12.23;8.23;;;;;1.80;92974.00;;;;7394224;19;20157;-75
2023/03/06 10:33:21;;;;;;;12.60;8.87;;;;;1.50;92975.00;;;;7392910;19;20207;-76
2023/03/06 10:35:55;;;;;;;13.43;8.20;;;;;1.70;92973.00;;;;7395053;19;20614;-76
2023/03/06 10:38:37;;;;;;;13.77;8.27;;;;;1.70;92963.00;;;;7394353;19;20152;-76
2023/03/06 10:41:10;;;;;;;11.03;7.73;;;;;2.00;92965.00;;;;7395481;19;20483;-77
2023/03/06 10:44:00;;;;;;;14.83;8.67;;;;;2.20;92961.00;;;;7394677;19;20584;-77
2023/03/06 10:46:48;;;;;;;11.27;7.93;;;;;2.00;92964.00;;;;7395290;19;20124;-77
2023/03/06 10:49:28;;;;;;;11.17;7.93;;;;;2.00;92956.00;;;;7395516;19;20473;-77
2023/03/06 10:52:05;;;;;;;11.07;8.07;;;;;2.30;92966.00;;;;7394979;19;20603;-78
2023/03/06 10:54:42;;;;;;;12.20;7.40;;;;;2.30;92964.00;;;;7396131;19;20125;-79
2023/03/06 10:57:28;;;;;;;11.10;7.90;;;;;1.90;92968.00;;;;7392554;19;20133;-78
2023/03/06 11:00:21;;;;;;;9.67;7.10;;;;;2.30;92957.00;;;;7394922;19;20137;-79
2023/03/06 11:03:19;;;;;;;11.10;7.70;;;;;2.30;92950.00;;;;7394979;19;20155;-77
2023/03/06 11:05:56;;;;;;;13.10;7.27;;;;;2.40;92959.00;;;;7389283;19;20137;-77
2023/03/06 11:08:23;;;;;;;9.63;7.40;;;;;2.70;92951.00;;;;7394001;19;20153;-78
2023/03/06 11:11:02;;;;;;;13.23;7.23;;;;;3.00;92951.00;;;;7396409;19;20127;-77
2023/03/06 11:13:38;;;;;;;12.73;7.43;;;;;3.20;92954.00;;;;7394371;19;20145;-78
2023/03/06 11:16:26;;;;;;;10.20;6.77;;;;;3.20;92956.00;;;;7393151;19;20145;-78
2023/03/06 11:19:16;;;;;;;11.57;7.30;;;;;3.10;92953.00;;;;7394240;19;20604;-79
2023/03/06 11:22:03;;;;;;;11.90;7.27;;;;;2.80;92947.00;;;;7393821;19;20499;-78
2023/03/06 11:24:41;;;;;;;10.67;6.87;;;;;3.00;92948.00;;;;7394252;19;20541;-78
2023/03/06 11:27:33;;;;;;;9.20;6.47;;;;;2.90;92943.00;;;;7390983;19;20146;-78
2023/03/06 11:30:06;;;;;;;10.27;6.67;;;;;3.10;92948.00;;;;7395594;19;20136;-80
2023/03/06 11:33:08;;;;;;;9.87;6.87;;;;;3.10;92950.00;;;;7395797;19;20141;-77
2023/03/06 11:35:58;;;;;;;10.37;6.73;;;;;3.10;92940.00;;;;7392306;19;20139;-78
2023/03/06 11:38:46;;;;;;;10.73;7.03;;;;;2.60;92945.00;;;;7393567;19;20588;-78
2023/03/06 11:42:00;;;;;;;10.80;6.80;;;;;2.80;92939.00;;;;7395082;19;20140;-79
2023/03/06 11:44:52;;;;;;;11.13;6.83;;;;;2.20;92944.00;;;;7394527;19;20139;-78
2023/03/06 11:47:35;;;;;;;9.57;6.73;;;;;2.70;92945.00;;;;7391309;19;20730;-79
2023/03/06 11:50:27;;;;;;;11.07;7.00;;;;;2.50;92927.00;;;;7393588;19;20161;-78
2023/03/06 11:53:02;;;;;;;9.97;7.07;;;;;2.70;92935.00;;;;7395280;19;20149;-79
2023/03/06 11:56:13;;;;;;;10.93;7.00;;;;;3.00;92923.00;;;;7392747;19;20500;-78
2023/03/06 11:58:52;;;;;;;11.03;7.53;;;;;2.70;92924.00;;;;7392614;19;20611;-79
2023/03/06 12:01:41;;;;;;;10.40;6.80;;;;;3.30;92927.00;;;;7391056;19;20658;-78
2023/03/06 12:04:31;;;;;;;10.23;6.70;;;;;3.50;92919.00;;;;7392890;19;20187;-78
2023/03/06 12:07:19;;;;;;;12.10;7.20;;;;;3.20;92917.00;;;;7393157;19;20162;-78
2023/03/06 12:10:09;;;;;;;10.80;7.00;;;;;2.30;92925.00;;;;7392362;19;20133;-78
2023/03/06 12:13:01;;;;;;;8.60;6.20;;;;;2.40;92923.00;;;;7393261;19;20152;-79
2023/03/06 12:15:56;;;;;;;9.87;7.20;;;;;2.60;92936.00;;;;7391502;19;20165;-77
2023/03/06 12:18:46;;;;;;;10.67;6.83;;;;;2.90;92929.00;;;;7400092;19;20156;-78
2023/03/06 12:21:49;;;;;;;12.47;7.53;;;;;2.60;92918.00;;;;7402824;19;20144;-77
2023/03/06 12:24:45;;;;;;;11.17;6.80;;;;;2.30;92924.00;;;;7400443;19;20144;-77
2023/03/06 12:27:25;;;;;;;10.43;6.93;;;;;3.10;92918.00;;;;7396738;19;20152;-78
2023/03/06 12:30:14;;;;;;;10.80;6.90;;;;;3.00;92918.00;;;;7401459;19;20615;-78
2023/03/06 12:33:03;;;;;;;11.77;7.40;;;;;2.70;92919.00;;;;7398937;19;20156;-78
2023/03/06 12:36:04;;;;;;;11.90;7.40;;;;;2.90;92921.00;;;;7396922;19;20580;-78
2023/03/06 12:39:03;;;;;;;9.40;6.87;;;;;3.00;92911.00;;;;7401472;19;20600;-78
2023/03/06 12:42:05;;;;;;;16.47;7.57;;;;;2.90;92910.00;;;;7400235;19;20468;-78
2023/03/06 12:45:31;;;;;;;10.47;7.23;;;;;2.40;92864.00;;;;7396453;19;20155;-77
2023/03/06 12:48:00;;;;;;;9.17;6.57;;;;;2.40;92913.00;;;;7399825;19;20789;-78
2023/03/06 12:50:38;;;;;;;13.07;8.07;;;;;2.40;92914.00;;;;7400160;19;20149;-77
2023/03/06 12:53:12;;;;;;;13.30;7.53;;;;;2.40;92912.00;;;;7403720;19;20160;-78
2023/03/06 12:55:49;;;;;;;11.37;7.37;;;;;2.60;92914.00;;;;7401984;19;20132;-78